createdAt,value
2018-05-31T00:01:23.190Z,19.73
2018-05-31T00:03:51.080Z,20.40
2018-05-31T00:06:20.850Z,22.70
2018-05-31T00:08:48.714Z,26.83
2018-05-31T00:11:16.559Z,25.63
2018-05-31T00:13:44.469Z,23.47
2018-05-31T00:16:12.333Z,28.10
2018-05-31T00:18:40.378Z,26.03
2018-05-31T00:21:08.252Z,28.57
2018-05-31T00:23:36.116Z,25.03
2018-05-31T00:26:03.980Z,26.83
2018-05-31T00:28:31.851Z,25.50
2018-05-31T00:30:59.730Z,34.00
2018-05-31T00:33:27.623Z,34.37
2018-05-31T00:35:55.511Z,38.10
2018-05-31T00:38:23.401Z,44.30
2018-05-31T00:40:51.345Z,36.37
2018-05-31T00:43:19.205Z,30.57
2018-05-31T00:45:47.100Z,28.50
2018-05-31T00:48:15.213Z,25.27
2018-05-31T00:50:43.113Z,25.43
2018-05-31T00:53:10.992Z,26.47
2018-05-31T00:55:44.926Z,26.60
2018-05-31T00:58:12.833Z,26.17
2018-05-31T01:00:40.716Z,24.80
2018-05-31T01:03:08.605Z,29.00
2018-05-31T01:05:36.670Z,24.50
2018-05-31T01:08:04.617Z,30.80
2018-05-31T01:10:32.499Z,31.60
2018-05-31T01:13:00.387Z,28.93
2018-05-31T01:15:28.239Z,27.90
2018-05-31T01:17:56.205Z,29.50
2018-05-31T01:20:24.052Z,32.30
2018-05-31T01:22:51.941Z,28.63
2018-05-31T01:25:19.823Z,27.83
2018-05-31T01:27:47.671Z,28.20
2018-05-31T01:30:15.538Z,29.63
2018-05-31T01:32:43.424Z,32.80
2018-05-31T01:35:11.330Z,30.07
2018-05-31T01:37:39.186Z,30.37
2018-05-31T01:40:07.078Z,30.77
2018-05-31T01:42:34.977Z,33.10
2018-05-31T01:45:03.133Z,31.97
2018-05-31T01:47:30.999Z,29.17
2018-05-31T01:49:58.888Z,30.10
2018-05-31T01:52:26.769Z,30.70
2018-05-31T01:54:54.708Z,33.40
2018-05-31T01:57:22.633Z,33.23
2018-05-31T01:59:50.493Z,33.47
2018-05-31T02:02:18.364Z,31.43
2018-05-31T02:04:46.301Z,31.87
2018-05-31T02:07:14.150Z,29.17
2018-05-31T02:09:42.010Z,30.80
2018-05-31T02:12:09.914Z,29.20
2018-05-31T02:14:37.833Z,33.20
2018-05-31T02:17:05.739Z,31.80
2018-05-31T02:19:33.810Z,28.17
2018-05-31T02:22:01.710Z,31.40
2018-05-31T02:24:29.652Z,29.33
2018-05-31T02:26:57.509Z,27.77
2018-05-31T02:29:25.413Z,30.43
2018-05-31T02:31:53.284Z,32.23
2018-05-31T02:34:21.143Z,32.80
2018-05-31T02:36:48.981Z,34.57
2018-05-31T02:39:16.864Z,33.23
2018-05-31T02:41:44.720Z,28.73
2018-05-31T02:44:12.580Z,33.07
2018-05-31T02:46:40.445Z,33.17
2018-05-31T02:49:08.291Z,38.33
2018-05-31T02:51:36.225Z,33.40
2018-05-31T02:54:04.107Z,32.70
2018-05-31T02:56:31.972Z,32.80
2018-05-31T02:58:59.900Z,32.37
2018-05-31T03:01:27.789Z,34.07
2018-05-31T03:03:55.653Z,36.13
2018-05-31T03:06:23.543Z,34.73
2018-05-31T03:08:51.447Z,33.80
2018-05-31T03:11:19.345Z,33.23
2018-05-31T03:13:47.286Z,28.83
2018-05-31T03:16:15.167Z,34.87
2018-05-31T03:18:43.022Z,37.37
2018-05-31T03:21:10.913Z,36.67
2018-05-31T03:23:38.783Z,31.40
2018-05-31T03:26:06.630Z,31.90
2018-05-31T03:28:34.681Z,33.67
2018-05-31T03:31:02.541Z,31.67
2018-05-31T03:33:30.398Z,30.03
2018-05-31T03:35:58.268Z,35.60
2018-05-31T03:38:26.146Z,32.30
2018-05-31T03:40:54.009Z,30.80
2018-05-31T03:43:21.885Z,35.60
2018-05-31T03:45:49.884Z,31.13
2018-05-31T03:48:17.752Z,30.50
2018-05-31T03:50:45.621Z,30.00
2018-05-31T03:53:13.509Z,30.10
2018-05-31T03:55:41.390Z,28.80
2018-05-31T03:58:09.263Z,31.50
2018-05-31T04:00:37.369Z,29.60
2018-05-31T04:03:05.220Z,33.87
2018-05-31T04:05:33.086Z,35.53
2018-05-31T04:08:00.954Z,30.40
2018-05-31T04:10:28.842Z,29.97
2018-05-31T04:12:56.715Z,30.13
2018-05-31T04:15:24.573Z,32.20
2018-05-31T04:17:52.430Z,31.97
2018-05-31T04:20:20.301Z,31.73
2018-05-31T04:22:48.210Z,35.23
2018-05-31T04:25:16.067Z,38.80
2018-05-31T04:27:43.946Z,29.67
2018-05-31T04:30:11.807Z,31.00
2018-05-31T04:32:39.670Z,30.33
2018-05-31T04:35:07.524Z,34.20
2018-05-31T04:37:35.393Z,32.97
2018-05-31T04:40:03.269Z,33.10
2018-05-31T04:42:31.172Z,31.93
2018-05-31T04:44:59.006Z,32.53
2018-05-31T04:47:26.875Z,30.87
2018-05-31T04:49:54.734Z,33.43
2018-05-31T04:52:22.669Z,31.80
2018-05-31T04:54:50.549Z,33.40
2018-05-31T04:57:18.401Z,29.17
2018-05-31T04:59:46.267Z,30.23
2018-05-31T05:02:14.116Z,27.93
2018-05-31T05:04:42.034Z,27.67
2018-05-31T05:07:09.934Z,30.37
2018-05-31T05:09:37.830Z,27.87
2018-05-31T05:12:05.688Z,28.20
2018-05-31T05:14:33.558Z,25.13
2018-05-31T05:17:01.456Z,27.53
2018-05-31T05:19:29.317Z,25.50
2018-05-31T05:21:57.217Z,26.10
2018-05-31T05:24:25.102Z,25.20
2018-05-31T05:26:52.974Z,26.43
2018-05-31T05:29:20.874Z,23.73
2018-05-31T05:31:48.754Z,24.43
2018-05-31T05:34:16.618Z,24.13
2018-05-31T05:36:44.473Z,25.13
2018-05-31T05:39:12.349Z,24.20
2018-05-31T05:41:40.198Z,24.63
2018-05-31T05:44:08.093Z,25.90
2018-05-31T05:46:36.125Z,19.77
2018-05-31T05:49:04.074Z,21.77
2018-05-31T05:51:32.009Z,25.73
2018-05-31T05:53:59.892Z,23.07
2018-05-31T05:56:27.848Z,21.83
2018-05-31T05:58:55.685Z,23.60
2018-05-31T06:01:23.567Z,21.10
2018-05-31T06:03:51.421Z,21.23
2018-05-31T06:06:19.302Z,21.83
2018-05-31T06:08:47.163Z,19.00
2018-05-31T06:11:15.027Z,21.60
2018-05-31T06:13:42.889Z,22.10
2018-05-31T06:16:10.770Z,20.47
2018-05-31T06:18:38.625Z,22.67
2018-05-31T06:21:06.478Z,20.87
2018-05-31T06:23:34.363Z,20.60
2018-05-31T06:26:02.229Z,24.87
2018-05-31T06:28:30.088Z,21.40
2018-05-31T06:30:57.997Z,20.93
2018-05-31T06:33:25.873Z,23.00
2018-05-31T06:35:53.742Z,20.70
2018-05-31T06:38:21.585Z,19.47
2018-05-31T06:40:49.437Z,24.13
2018-05-31T06:43:17.322Z,20.80
2018-05-31T06:45:45.205Z,22.40
2018-05-31T06:48:13.058Z,19.50
2018-05-31T06:50:40.966Z,20.50
2018-05-31T06:53:08.813Z,20.00
2018-05-31T06:55:36.654Z,18.70
2018-05-31T06:58:04.521Z,16.00
2018-05-31T07:00:32.365Z,15.10
2018-05-31T07:03:00.201Z,16.10
2018-05-31T07:05:28.057Z,13.77
2018-05-31T07:07:55.945Z,14.57
2018-05-31T07:10:23.809Z,15.23
2018-05-31T07:12:51.683Z,14.27
2018-05-31T07:15:19.543Z,16.60
2018-05-31T07:17:47.393Z,16.50
2018-05-31T07:20:15.253Z,13.80
2018-05-31T07:22:43.220Z,14.00
2018-05-31T07:25:11.090Z,15.10
2018-05-31T07:27:38.958Z,14.63
2018-05-31T07:30:06.812Z,14.10
2018-05-31T07:32:34.678Z,13.37
2018-05-31T07:35:02.523Z,21.80
2018-05-31T07:37:30.389Z,16.47
2018-05-31T07:39:58.270Z,18.60
2018-05-31T07:42:26.141Z,14.00
2018-05-31T07:44:54.040Z,14.97
2018-05-31T07:47:22.011Z,14.93
2018-05-31T07:49:49.873Z,16.77
2018-05-31T07:52:17.741Z,13.50
2018-05-31T07:54:45.601Z,11.53
2018-05-31T07:57:13.456Z,12.50
2018-05-31T07:59:41.328Z,13.03
2018-05-31T08:02:09.202Z,11.70
2018-05-31T08:04:37.064Z,12.60
2018-05-31T08:07:04.942Z,16.63
2018-05-31T08:09:32.818Z,12.13
2018-05-31T08:12:00.692Z,11.37
2018-05-31T08:14:28.587Z,12.10
2018-05-31T08:16:56.435Z,12.20
2018-05-31T08:19:24.302Z,11.40
2018-05-31T08:21:52.277Z,17.87
2018-05-31T08:24:20.196Z,11.07
2018-05-31T08:26:48.042Z,16.60
2018-05-31T08:29:15.931Z,14.17
2018-05-31T08:31:43.840Z,14.57
2018-05-31T08:34:11.729Z,10.87
2018-05-31T08:36:39.590Z,10.63
2018-05-31T08:39:07.675Z,10.60
2018-05-31T08:41:35.542Z,11.00
2018-05-31T08:44:03.398Z,10.20
2018-05-31T08:46:31.266Z,10.17
2018-05-31T08:48:59.129Z,10.77
2018-05-31T08:51:27.061Z,9.90
2018-05-31T08:53:54.962Z,13.03
2018-05-31T08:56:22.822Z,9.67
2018-05-31T08:58:50.723Z,10.67
2018-05-31T09:01:18.620Z,11.07
2018-05-31T09:03:46.506Z,11.00
2018-05-31T09:06:14.597Z,12.77
2018-05-31T09:08:42.457Z,11.70
2018-05-31T09:11:10.438Z,11.80
2018-05-31T09:13:38.400Z,10.10
2018-05-31T09:16:06.255Z,11.00
2018-05-31T09:18:34.107Z,10.30
2018-05-31T09:21:01.969Z,10.30
2018-05-31T09:23:29.858Z,10.60
2018-05-31T09:25:57.775Z,12.67
2018-05-31T09:28:25.694Z,10.30
2018-05-31T09:30:53.547Z,10.80
2018-05-31T09:33:21.406Z,12.10
2018-05-31T09:35:49.310Z,12.43
2018-05-31T09:38:17.216Z,13.60
2018-05-31T09:40:45.071Z,13.07
2018-05-31T09:43:12.949Z,12.77
2018-05-31T09:45:40.825Z,12.10
2018-05-31T09:48:08.757Z,13.90
2018-05-31T09:50:36.624Z,11.50
2018-05-31T09:53:04.498Z,13.23
2018-05-31T09:55:32.586Z,12.30
2018-05-31T09:58:00.456Z,12.13
2018-05-31T10:00:34.383Z,13.80
2018-05-31T10:03:02.259Z,12.40
2018-05-31T10:05:30.134Z,13.27
2018-05-31T10:07:58.031Z,11.87
2018-05-31T10:10:25.913Z,13.47
2018-05-31T10:12:53.789Z,12.03
2018-05-31T10:15:21.738Z,13.47
2018-05-31T10:17:49.619Z,12.80
2018-05-31T10:20:17.483Z,14.47
2018-05-31T10:22:45.378Z,11.60
2018-05-31T10:25:13.310Z,13.10
2018-05-31T10:27:41.169Z,14.60
2018-05-31T10:30:09.061Z,11.57
2018-05-31T10:32:36.920Z,12.90
2018-05-31T10:35:04.831Z,12.40
2018-05-31T10:37:32.702Z,12.17
2018-05-31T10:40:00.613Z,12.80
2018-05-31T10:42:28.468Z,13.50
2018-05-31T10:44:56.358Z,12.70
2018-05-31T10:47:24.229Z,13.07
2018-05-31T10:49:52.083Z,12.97
2018-05-31T10:52:19.942Z,12.97
2018-05-31T10:54:47.840Z,17.40
2018-05-31T10:57:15.693Z,14.60
2018-05-31T10:59:43.576Z,14.17
2018-05-31T11:02:11.440Z,16.07
2018-05-31T11:04:39.292Z,13.70
2018-05-31T11:07:07.188Z,11.30
2018-05-31T11:09:35.045Z,10.40
2018-05-31T11:12:02.930Z,13.90
2018-05-31T11:14:30.789Z,10.10
2018-05-31T11:16:58.658Z,7.37
2018-05-31T11:19:26.561Z,7.80
2018-05-31T11:21:54.449Z,7.60
2018-05-31T11:24:22.356Z,9.17
2018-05-31T11:26:50.246Z,9.23
2018-05-31T11:29:18.124Z,7.80
2018-05-31T11:31:45.982Z,7.93
2018-05-31T11:34:13.837Z,10.57
2018-05-31T11:36:41.938Z,10.90
2018-05-31T11:39:10.071Z,8.43
2018-05-31T11:41:37.997Z,11.40
2018-05-31T11:44:05.861Z,9.10
2018-05-31T11:46:33.752Z,9.23
2018-05-31T11:49:01.621Z,13.90
2018-05-31T11:51:29.497Z,10.20
2018-05-31T11:53:57.637Z,12.73
2018-05-31T11:56:25.507Z,12.63
2018-05-31T11:58:53.357Z,10.77
2018-05-31T12:01:21.233Z,11.67
2018-05-31T12:03:49.143Z,12.20
2018-05-31T12:06:16.969Z,11.60
2018-05-31T12:08:44.845Z,13.10
2018-05-31T12:11:12.740Z,12.53
2018-05-31T12:13:40.598Z,12.10
2018-05-31T12:16:08.462Z,13.87
2018-05-31T12:18:36.321Z,11.73
2018-05-31T12:21:04.213Z,12.23
2018-05-31T12:23:32.131Z,12.70
2018-05-31T12:26:00.029Z,11.97
2018-05-31T12:28:27.903Z,12.43
2018-05-31T12:30:55.773Z,14.70
2018-05-31T12:33:24.458Z,14.10
2018-05-31T12:35:52.337Z,13.97
2018-05-31T12:38:20.201Z,12.60
2018-05-31T12:40:48.050Z,12.60
2018-05-31T12:43:15.930Z,12.33
2018-05-31T12:45:43.810Z,13.10
2018-05-31T12:48:11.700Z,12.57
2018-05-31T12:50:39.565Z,12.10
2018-05-31T12:53:07.433Z,12.37
2018-05-31T12:55:35.277Z,10.87
2018-05-31T12:58:03.145Z,12.17
2018-05-31T13:00:30.984Z,10.90
2018-05-31T13:02:58.830Z,10.80
2018-05-31T13:05:26.672Z,12.50
2018-05-31T13:07:54.740Z,9.20
2018-05-31T13:10:22.601Z,8.77
2018-05-31T13:12:50.490Z,8.90
2018-05-31T13:15:18.349Z,9.10
2018-05-31T13:17:46.193Z,14.50
2018-05-31T13:20:14.033Z,9.87
2018-05-31T13:22:41.876Z,10.17
2018-05-31T13:25:09.762Z,9.37
2018-05-31T13:27:37.618Z,10.20
2018-05-31T13:30:05.481Z,10.10
2018-05-31T13:32:33.550Z,10.50
2018-05-31T13:35:01.409Z,11.30
2018-05-31T13:37:29.285Z,11.67
2018-05-31T13:39:57.133Z,11.73
2018-05-31T13:42:24.991Z,11.33
2018-05-31T13:44:52.840Z,10.90
2018-05-31T13:47:20.953Z,10.87
2018-05-31T13:49:48.831Z,14.30
2018-05-31T13:52:16.733Z,11.57
2018-05-31T13:54:44.572Z,12.73
2018-05-31T13:57:12.449Z,12.33
2018-05-31T13:59:40.295Z,11.67
2018-05-31T14:02:08.150Z,12.40
2018-05-31T14:04:36.010Z,11.50
2018-05-31T14:07:03.849Z,12.00
2018-05-31T14:09:31.717Z,11.73
2018-05-31T14:11:59.705Z,10.63
2018-05-31T14:14:27.568Z,14.57
2018-05-31T14:16:55.431Z,12.00
2018-05-31T14:19:23.379Z,11.33
2018-05-31T14:21:51.247Z,9.77
2018-05-31T14:24:19.128Z,9.03
2018-05-31T14:26:46.970Z,9.43
2018-05-31T14:29:14.845Z,9.50
2018-05-31T14:31:42.697Z,10.93
2018-05-31T14:34:10.609Z,8.60
2018-05-31T14:36:38.451Z,8.43
2018-05-31T14:39:06.314Z,7.80
2018-05-31T14:41:34.177Z,7.60
2018-05-31T14:44:02.037Z,10.30
2018-05-31T14:46:29.944Z,7.80
2018-05-31T14:48:57.833Z,7.73
2018-05-31T14:51:25.685Z,7.03
2018-05-31T14:53:53.531Z,7.03
2018-05-31T14:56:21.377Z,7.77
2018-05-31T14:58:49.438Z,11.00
2018-05-31T15:01:17.302Z,7.00
2018-05-31T15:03:45.201Z,7.20
2018-05-31T15:06:13.041Z,7.53
2018-05-31T15:08:40.889Z,7.23
2018-05-31T15:11:08.756Z,8.20
2018-05-31T15:13:36.667Z,9.93
2018-05-31T15:16:04.537Z,7.17
2018-05-31T15:18:32.422Z,7.90
2018-05-31T15:21:00.281Z,8.77
2018-05-31T15:23:28.138Z,6.70
2018-05-31T15:25:56.008Z,9.90
2018-05-31T15:28:23.891Z,9.20
2018-05-31T15:30:51.740Z,7.50
2018-05-31T15:33:19.610Z,8.10
2018-05-31T15:35:47.472Z,8.70
2018-05-31T15:38:15.323Z,8.17
2018-05-31T15:40:43.209Z,8.77
2018-05-31T15:45:57.143Z,11.63
2018-05-31T15:48:24.994Z,9.30
2018-05-31T15:50:52.869Z,9.47
2018-05-31T15:53:20.746Z,10.23
2018-05-31T15:55:48.609Z,11.20
2018-05-31T16:01:02.506Z,9.10
2018-05-31T16:03:30.414Z,9.40
2018-05-31T16:05:58.254Z,9.67
2018-05-31T16:08:26.126Z,9.60
2018-05-31T16:10:54.278Z,9.20
2018-05-31T16:13:22.345Z,11.03
2018-05-31T16:15:50.217Z,9.10
2018-05-31T16:18:18.065Z,14.53
2018-05-31T16:20:45.959Z,9.83
2018-05-31T16:23:13.826Z,12.20
2018-05-31T16:25:41.674Z,10.13
2018-05-31T16:28:09.592Z,16.13
2018-05-31T16:30:37.461Z,10.10
2018-05-31T16:35:51.751Z,11.67
2018-05-31T16:38:19.643Z,9.90
2018-05-31T16:40:47.569Z,10.33
2018-05-31T16:43:15.386Z,9.90
2018-05-31T16:45:43.417Z,11.30
2018-05-31T16:48:11.265Z,8.93
2018-05-31T16:50:39.115Z,8.57
2018-05-31T16:53:06.977Z,7.97
2018-05-31T16:55:34.822Z,8.03
2018-05-31T16:58:02.697Z,18.40
2018-05-31T17:00:30.554Z,8.50
2018-05-31T17:02:58.424Z,8.43
2018-05-31T17:05:26.277Z,11.10
2018-05-31T17:07:54.335Z,10.93
2018-05-31T17:10:22.181Z,11.10
2018-05-31T17:12:50.014Z,8.70
2018-05-31T17:15:18.830Z,11.40
2018-05-31T17:17:46.705Z,8.87
2018-05-31T17:20:14.573Z,9.27
2018-05-31T17:22:42.416Z,14.83
2018-05-31T17:25:10.301Z,9.73
2018-05-31T17:27:38.153Z,11.70
2018-05-31T17:30:05.997Z,8.50
2018-05-31T17:32:33.854Z,9.40
2018-05-31T17:35:01.843Z,9.50
2018-05-31T17:37:29.917Z,8.50
2018-05-31T17:45:30.064Z,10.07
2018-05-31T17:47:57.970Z,14.83
2018-05-31T17:50:25.817Z,12.33
2018-05-31T17:52:53.673Z,9.37
2018-05-31T17:55:21.592Z,10.60
2018-05-31T17:57:49.417Z,10.00
2018-05-31T18:00:17.273Z,9.40
2018-05-31T18:02:45.125Z,10.07
2018-05-31T18:05:12.977Z,9.63
2018-05-31T18:07:40.891Z,10.70
2018-05-31T18:10:08.807Z,10.27
2018-05-31T18:12:36.729Z,10.23
2018-05-31T18:15:04.597Z,11.50
2018-05-31T18:17:32.526Z,10.60
2018-05-31T18:20:01.943Z,14.13
2018-05-31T18:22:30.012Z,10.63
2018-05-31T18:24:58.040Z,10.43
2018-05-31T18:27:26.191Z,11.20
2018-05-31T18:29:54.284Z,12.50
2018-05-31T18:32:22.228Z,18.50
2018-05-31T18:34:50.231Z,13.00
2018-05-31T18:37:19.808Z,12.30
2018-05-31T18:39:47.894Z,12.93
2018-05-31T18:42:15.777Z,13.20
2018-05-31T18:44:43.708Z,14.90
2018-05-31T18:47:11.733Z,14.90
2018-05-31T18:49:39.581Z,13.03
2018-05-31T18:52:07.460Z,13.30
2018-05-31T18:54:35.340Z,14.03
2018-05-31T18:57:03.196Z,14.30
2018-05-31T18:59:31.138Z,14.77
2018-05-31T19:01:59.012Z,14.00
2018-05-31T19:04:26.862Z,14.77
2018-05-31T19:06:54.736Z,15.20
2018-05-31T19:09:28.678Z,17.93
2018-05-31T19:11:56.532Z,16.03
2018-05-31T19:14:24.393Z,15.67
2018-05-31T19:16:52.457Z,16.60
2018-05-31T19:19:26.418Z,15.70
2018-05-31T19:21:54.675Z,17.50
2018-05-31T19:24:28.727Z,16.13
2018-05-31T19:26:56.590Z,16.03
2018-05-31T19:29:24.688Z,16.30
2018-05-31T19:31:52.549Z,16.90
2018-05-31T19:34:21.261Z,16.40
2018-05-31T19:36:55.186Z,16.73
2018-05-31T19:39:23.028Z,18.67
2018-05-31T19:41:50.921Z,20.00
2018-05-31T19:44:24.952Z,18.40
2018-05-31T19:46:53.047Z,17.90
2018-05-31T19:49:20.913Z,17.60
2018-05-31T19:51:54.912Z,17.77
2018-05-31T19:54:22.766Z,21.17
2018-05-31T19:56:50.741Z,16.57
2018-05-31T19:59:24.773Z,19.23
2018-05-31T20:01:58.809Z,18.73
2018-05-31T20:04:26.665Z,18.53
2018-05-31T20:06:54.557Z,18.47
2018-05-31T20:09:22.410Z,20.10
2018-05-31T20:11:50.276Z,21.43
2018-05-31T20:14:18.126Z,23.50
2018-05-31T20:16:45.982Z,19.93
2018-05-31T20:19:13.849Z,22.13
2018-05-31T20:21:41.687Z,22.37
2018-05-31T20:24:09.590Z,21.53
2018-05-31T20:26:37.442Z,22.20
2018-05-31T20:29:05.336Z,21.83
2018-05-31T20:31:33.202Z,21.93
2018-05-31T20:34:01.074Z,23.53
2018-05-31T20:36:28.952Z,22.30
2018-05-31T20:38:56.789Z,22.87
2018-05-31T20:41:24.643Z,23.47
2018-05-31T20:43:52.537Z,21.23
2018-05-31T20:46:20.423Z,22.33
2018-05-31T20:48:48.277Z,23.23
2018-05-31T20:51:16.134Z,25.27
2018-05-31T20:53:43.996Z,24.10
2018-05-31T20:56:11.902Z,24.60
2018-05-31T20:58:39.784Z,25.13
2018-05-31T21:01:07.634Z,22.37
2018-05-31T21:03:35.547Z,23.20
2018-05-31T21:06:03.501Z,22.73
2018-05-31T21:08:31.353Z,27.20
2018-05-31T21:10:59.248Z,24.80
2018-05-31T21:13:27.157Z,23.97
2018-05-31T21:15:55.053Z,25.43
2018-05-31T21:18:23.664Z,27.73
2018-05-31T21:20:51.629Z,27.13
2018-05-31T21:23:19.477Z,24.97
2018-05-31T21:25:47.329Z,24.90
2018-05-31T21:28:15.195Z,26.13
2018-05-31T21:30:43.064Z,27.20
2018-05-31T21:33:10.926Z,29.80
2018-05-31T21:35:38.854Z,27.23
2018-05-31T21:38:06.724Z,27.80
2018-05-31T21:40:34.565Z,28.60
2018-05-31T21:43:02.441Z,29.80
2018-05-31T21:45:30.346Z,29.40
2018-05-31T21:47:58.176Z,29.53
2018-05-31T21:50:26.028Z,36.17
2018-05-31T21:52:53.966Z,30.87
2018-05-31T21:55:21.870Z,29.63
2018-05-31T21:57:49.723Z,29.50
2018-05-31T22:00:23.748Z,28.27
2018-05-31T22:02:51.713Z,28.63
2018-05-31T22:05:19.613Z,28.20
2018-05-31T22:07:47.598Z,27.27
2018-05-31T22:10:15.440Z,26.40
2018-05-31T22:12:43.306Z,26.93
2018-05-31T22:15:11.171Z,26.07
2018-05-31T22:17:39.040Z,26.67
2018-05-31T22:20:06.935Z,26.27
2018-05-31T22:22:34.785Z,26.83
2018-05-31T22:25:02.644Z,26.20
2018-05-31T22:27:30.517Z,30.20
2018-05-31T22:29:58.447Z,32.03
2018-05-31T22:32:28.401Z,31.27
2018-05-31T22:34:57.942Z,40.20
2018-05-31T22:37:27.319Z,30.90
2018-05-31T22:39:55.253Z,27.30
2018-05-31T22:42:23.101Z,32.90
2018-05-31T22:44:50.972Z,32.47
2018-05-31T22:47:18.809Z,30.30
2018-05-31T22:49:46.697Z,30.57
2018-05-31T22:52:14.541Z,29.97
2018-05-31T22:54:42.410Z,35.93
2018-05-31T22:57:10.289Z,34.13
2018-05-31T22:59:38.172Z,34.10
2018-05-31T23:02:06.032Z,30.83
2018-05-31T23:04:33.901Z,29.80
2018-05-31T23:07:01.734Z,30.23
2018-05-31T23:09:29.624Z,28.37
2018-05-31T23:11:57.498Z,27.50
2018-05-31T23:14:25.343Z,26.53
2018-05-31T23:16:53.238Z,27.90
2018-05-31T23:19:21.072Z,27.13
2018-05-31T23:21:49.285Z,26.63
2018-05-31T23:24:17.136Z,28.30
2018-05-31T23:26:45.006Z,29.23
2018-05-31T23:29:12.869Z,27.70
2018-05-31T23:31:40.713Z,27.77
2018-05-31T23:34:08.582Z,27.67
2018-05-31T23:36:36.449Z,27.83
2018-05-31T23:39:04.294Z,29.93
2018-05-31T23:41:32.129Z,28.93
2018-05-31T23:43:59.986Z,25.80
2018-05-31T23:46:27.844Z,29.10
2018-05-31T23:48:55.726Z,30.93
2018-05-31T23:51:23.569Z,31.87
2018-05-31T23:53:51.425Z,32.67
2018-05-31T23:56:19.324Z,31.83
2018-05-31T23:58:47.174Z,33.63
